TimeCDT,TemperatureF,Dew PointF,Humidity,Sea Level PressureIn,VisibilityMPH,Wind Direction,Wind SpeedMPH,Gust SpeedMPH,PrecipitationIn,Events,Conditions,WindDirDegrees,DateUTC
12:15 AM,60.8,33.8,36,29.84,10.0,SSE,15.0,18.4,N/A,,Clear,160,2013-03-10 06:15:00
12:35 AM,62.6,33.8,34,29.84,10.0,South,17.3,24.2,N/A,,Clear,170,2013-03-10 06:35:00
12:55 AM,62.6,33.8,34,29.83,10.0,South,16.1,27.6,N/A,,Scattered Clouds,170,2013-03-10 06:55:00
1:15 AM,62.6,33.8,34,29.83,10.0,South,12.7,23.0,N/A,,Scattered Clouds,170,2013-03-10 07:15:00
1:35 AM,62.6,33.8,34,29.81,10.0,South,18.4,27.6,N/A,,Mostly Cloudy,170,2013-03-10 07:35:00
1:55 AM,62.6,33.8,34,29.80,10.0,South,19.6,27.6,N/A,,Scattered Clouds,170,2013-03-10 07:55:00
3:15 AM,60.8,35.6,39,29.80,10.0,South,18.4,26.5,N/A,Thunderstorm,Scattered Clouds,170,2013-03-10 08:15:00
3:35 AM,60.8,35.6,39,29.79,10.0,South,16.1,25.3,N/A,,Mostly Cloudy,170,2013-03-10 08:35:00
3:55 AM,60.8,35.6,39,29.79,10.0,South,25.3,33.4,N/A,,Scattered Clouds,180,2013-03-10 08:55:00
4:15 AM,60.8,39.2,45,29.81,10.0,South,15.0,27.6,N/A,Rain,Light Rain,180,2013-03-10 09:15:00
4:35 AM,60.8,39.2,45,29.81,10.0,South,15.0,29.9,N/A,,Mostly Cloudy,180,2013-03-10 09:35:00
4:55 AM,59.0,39.2,48,29.81,10.0,South,18.4,25.3,N/A,,Scattered Clouds,180,2013-03-10 09:55:00
5:15 AM,59.0,41.0,51,29.81,10.0,South,17.3,26.5,N/A,,Mostly Cloudy,180,2013-03-10 10:15:00
5:35 AM,60.8,42.8,52,29.81,10.0,South,20.7,29.9,N/A,,Overcast,180,2013-03-10 10:35:00
5:55 AM,60.8,44.6,55,29.80,10.0,South,17.3,28.8,N/A,,Overcast,180,2013-03-10 10:55:00
6:15 AM,60.8,44.6,55,29.80,10.0,South,19.6,23.0,N/A,,Overcast,170,2013-03-10 11:15:00
6:35 AM,60.8,44.6,55,29.80,10.0,South,19.6,27.6,N/A,,Overcast,180,2013-03-10 11:35:00
6:55 AM,60.8,46.4,59,29.81,10.0,South,15.0,21.9,N/A,,Overcast,170,2013-03-10 11:55:00
7:15 AM,60.8,46.4,59,29.81,10.0,South,15.0,19.6,N/A,,Overcast,170,2013-03-10 12:15:00
7:35 AM,60.8,48.2,63,29.80,10.0,South,13.8,-,N/A,,Overcast,170,2013-03-10 12:35:00
7:55 AM,60.8,48.2,63,29.81,10.0,South,12.7,19.6,N/A,,Overcast,170,2013-03-10 12:55:00
8:15 AM,60.8,48.2,63,29.80,10.0,SSE,15.0,20.7,N/A,,Overcast,160,2013-03-10 13:15:00
8:35 AM,60.8,48.2,63,29.79,10.0,South,17.3,20.7,N/A,,Overcast,170,2013-03-10 13:35:00
8:55 AM,60.8,50.0,68,29.77,10.0,South,12.7,24.2,N/A,,Overcast,170,2013-03-10 13:55:00
9:15 AM,60.8,50.0,68,29.77,10.0,South,19.6,24.2,N/A,,Overcast,170,2013-03-10 14:15:00
9:35 AM,60.8,50.0,68,29.77,10.0,South,16.1,25.3,N/A,,Overcast,170,2013-03-10 14:35:00
9:55 AM,60.8,51.8,72,29.75,10.0,SSE,12.7,23.0,N/A,,Overcast,150,2013-03-10 14:55:00
10:15 AM,60.8,51.8,72,29.75,10.0,SSE,19.6,26.5,N/A,,Overcast,160,2013-03-10 15:15:00
10:35 AM,62.6,50.0,63,29.74,10.0,SSE,19.6,26.5,N/A,,Overcast,160,2013-03-10 15:35:00
10:55 AM,62.6,50.0,63,29.76,10.0,SSE,19.6,24.2,N/A,,Overcast,160,2013-03-10 15:55:00
11:15 AM,62.6,50.0,63,29.76,10.0,South,18.4,25.3,N/A,,Overcast,180,2013-03-10 16:15:00
11:35 AM,62.6,51.8,68,29.73,10.0,SSE,17.3,29.9,N/A,Rain,Light Rain,160,2013-03-10 16:35:00
11:55 AM,62.6,51.8,68,29.71,10.0,SSE,19.6,27.6,N/A,Rain,Light Rain,160,2013-03-10 16:55:00
12:15 PM,60.8,53.6,77,29.70,10.0,SSE,16.1,23.0,N/A,Rain,Light Rain,150,2013-03-10 17:15:00
12:35 PM,60.8,53.6,77,29.69,10.0,SSE,15.0,24.2,N/A,,Light Drizzle,150,2013-03-10 17:35:00
12:55 PM,60.8,53.6,77,29.68,10.0,SSE,13.8,25.3,N/A,Rain,Light Rain,160,2013-03-10 17:55:00
1:15 PM,60.8,53.6,77,29.68,10.0,SSE,15.0,25.3,N/A,Rain,Rain,160,2013-03-10 18:15:00
1:35 PM,57.2,53.6,88,29.68,7.0,South,17.3,26.5,0.05,Rain,Rain,170,2013-03-10 18:35:00
1:55 PM,55.4,51.8,88,29.74,5.0,West,19.6,31.1,0.20,Rain,Heavy Rain,260,2013-03-10 18:55:00
2:15 PM,51.8,50.0,94,29.74,1.0,West,15.0,24.2,0.07,Rain,Rain,260,2013-03-10 19:15:00
2:35 PM,51.8,48.2,88,29.73,10.0,West,12.7,20.7,0.08,Rain,Rain,280,2013-03-10 19:35:00
2:55 PM,51.8,48.2,88,29.74,10.0,WSW,6.9,-,0.10,Rain,Light Rain,240,2013-03-10 19:55:00
3:15 PM,51.8,48.2,88,29.74,10.0,WSW,4.6,-,N/A,Rain,Rain,250,2013-03-10 20:15:00
3:35 PM,51.8,48.2,88,29.74,10.0,West,4.6,-,N/A,Rain,Light Rain,260,2013-03-10 20:35:00
3:55 PM,51.8,50.0,94,29.74,10.0,Calm,Calm,-,0.02,Rain,Rain,0,2013-03-10 20:55:00
4:15 PM,51.8,48.2,88,29.75,10.0,SSW,3.5,-,0.03,Rain,Rain,200,2013-03-10 21:15:00
4:35 PM,51.8,48.2,88,29.74,10.0,SE,6.9,-,0.06,Rain,Rain,140,2013-03-10 21:35:00
4:55 PM,51.8,48.2,88,29.70,10.0,ESE,6.9,-,0.09,Rain,Rain,120,2013-03-10 21:55:00
5:15 PM,51.8,48.2,88,29.69,10.0,SE,9.2,-,0.02,Rain,Light Rain,130,2013-03-10 22:15:00
5:35 PM,51.8,48.2,88,29.70,10.0,SE,6.9,-,0.02,,Mostly Cloudy,140,2013-03-10 22:35:00
5:55 PM,51.8,48.2,88,29.70,10.0,SE,10.4,16.1,0.02,,Overcast,140,2013-03-10 22:55:00
6:15 PM,51.8,48.2,88,29.70,10.0,SSE,8.1,-,N/A,,Overcast,160,2013-03-10 23:15:00
6:35 PM,51.8,48.2,88,29.73,10.0,SSW,8.1,-,N/A,,Overcast,200,2013-03-10 23:35:00
6:55 PM,51.8,48.2,88,29.74,10.0,SSW,5.8,-,N/A,Rain,Light Rain,200,2013-03-10 23:55:00
7:15 PM,51.8,48.2,88,29.73,10.0,SSE,8.1,-,N/A,,Overcast,160,2013-03-11 00:15:00
7:35 PM,51.8,48.2,88,29.74,10.0,South,6.9,-,N/A,,Overcast,180,2013-03-11 00:35:00
7:55 PM,51.8,48.2,88,29.73,10.0,SSE,6.9,-,N/A,,Mostly Cloudy,150,2013-03-11 00:55:00
8:15 PM,50.0,48.2,94,29.74,10.0,SSE,4.6,-,N/A,,Scattered Clouds,160,2013-03-11 01:15:00
8:35 PM,50.0,48.2,94,29.74,10.0,SSE,5.8,-,N/A,,Scattered Clouds,160,2013-03-11 01:35:00
8:55 PM,50.0,48.2,94,29.74,10.0,South,10.4,-,N/A,,Mostly Cloudy,180,2013-03-11 01:55:00
9:15 PM,50.0,48.2,94,29.74,10.0,South,10.4,-,N/A,,Scattered Clouds,170,2013-03-11 02:15:00
9:35 PM,50.0,48.2,94,29.74,10.0,South,10.4,17.3,N/A,,Scattered Clouds,170,2013-03-11 02:35:00
9:55 PM,51.8,48.2,88,29.74,10.0,South,11.5,17.3,N/A,,Mostly Cloudy,180,2013-03-11 02:55:00
10:15 PM,51.8,48.2,88,29.75,10.0,South,11.5,-,N/A,,Overcast,180,2013-03-11 03:15:00
10:35 PM,51.8,48.2,88,29.74,10.0,South,9.2,-,N/A,,Overcast,180,2013-03-11 03:35:00
10:55 PM,51.8,48.2,88,29.74,7.0,South,8.1,-,N/A,,Overcast,180,2013-03-11 03:55:00
11:15 PM,51.8,48.2,88,29.74,7.0,SSW,9.2,-,N/A,,Overcast,210,2013-03-11 04:15:00
11:35 PM,50.0,46.4,87,29.75,10.0,West,9.2,19.6,N/A,,Overcast,270,2013-03-11 04:35:00
11:55 PM,48.2,46.4,93,29.75,10.0,West,9.2,-,N/A,,Overcast,260,2013-03-11 04:55:00
12:15 AM,48.2,46.4,93,29.75,7.0,West,9.2,-,N/A,,Overcast,260,2013-03-11 05:15:00
12:35 AM,48.2,44.6,87,29.75,10.0,West,6.9,-,N/A,,Overcast,260,2013-03-11 05:35:00
12:55 AM,48.2,44.6,87,29.75,10.0,West,8.1,-,N/A,,Overcast,260,2013-03-11 05:55:00